Terminal Aerodrome Forecast
Issued by NWS

Home | Current Version | Previous Version | Text Only | Print | Product List | Glossary On
Versions: 1 2 3 4 5 6 7 8 9 10 11 12 13 14 15 16 17 18 19
000
FTUS41 KBGM 020600 AAA
TAFRME
TAF AMD
KRME 020632Z 0207/0306 11005KT P6SM OVC015
      TEMPO 0207/0211 SCT015
     FM021400 13005KT P6SM SCT045
     FM030000 14008KT P6SM FEW045=

USA.gov is the U.S. government's official web portal to all federal, state and local government web resources and services.